Startpagina
METAR-TAF:

METAR-TAF

Vliegvelden :

Fort Richardson, Alaska, Verenigde Staten

breedte: 61-15-45N, lengte: 149-39-17W, hoogte: 115 m

Actueel weer

Dit bericht is 18 minuten geleden gemaakt, om 11:40 UTC
Wind 12 kt uit het oosten met uitschieters tot 20 kt
Temperatuur 11°C
Vochtigheid 66%
Druk 988 hPa
Zicht: 14.5 km
Verspreide wolken op 3900 ft
Geheel bewolkt op 6000 ft
lichte regen

METAR: PAFR 161140Z AUTO 08012G20KT 9SM -RA SCT039 OVC060 11/05 A2918 RMK AO2 WSHFT 37 RAE30RAB39 SLP888

Tijdstip: 03:58 (11:58 UTC)


TAF: ontbreekt

Waarnemingen en weersverwachtingen van meer dan 4000 vliegvelden (METAR en TAF).

De beschikbare stations zijn de gele en rode punten op de kaart.

Ga met uw muis naar het station om de naam te zien.

Klik dan om waarnemingen en weersverwachtingen te zien.

kaart wijzigen: klik op de groene knoppen met een zwart kruis om in te zoomen, op de groene knop met een streepje om uit te zoomen of op de groene pijlen voor aangrenzende kaarten.


METAR-TAF: